sensor_id;sensor_type;location;lat;lon;timestamp;P1;durP1;ratioP1;P2;durP2;ratioP2
34805;SDS011;65084;42.196;25.326;2023-03-01T00:00:05;1.50;;;1.40;;
34805;SDS011;65084;42.196;25.326;2023-03-01T00:02:35;1.10;;;1.10;;
34805;SDS011;65084;42.196;25.326;2023-03-01T00:05:02;1.40;;;1.30;;
34805;SDS011;65084;42.196;25.326;2023-03-01T00:07:29;1.10;;;1.10;;
34805;SDS011;65084;42.196;25.326;2023-03-01T00:09:57;1.02;;;1.02;;
34805;SDS011;65084;42.196;25.326;2023-03-01T00:12:24;0.98;;;0.98;;
34805;SDS011;65084;42.196;25.326;2023-03-01T00:14:52;0.88;;;0.88;;
34805;SDS011;65084;42.196;25.326;2023-03-01T00:17:20;1.23;;;1.13;;
34805;SDS011;65084;42.196;25.326;2023-03-01T00:19:48;1.08;;;1.00;;
34805;SDS011;65084;42.196;25.326;2023-03-01T00:22:16;1.50;;;1.20;;
34805;SDS011;65084;42.196;25.326;2023-03-01T00:24:43;1.33;;;1.23;;
34805;SDS011;65084;42.196;25.326;2023-03-01T00:27:10;0.80;;;0.80;;
34805;SDS011;65084;42.196;25.326;2023-03-01T00:29:37;0.88;;;0.88;;
34805;SDS011;65084;42.196;25.326;2023-03-01T00:32:05;0.95;;;0.95;;
34805;SDS011;65084;42.196;25.326;2023-03-01T00:34:32;1.50;;;1.00;;
34805;SDS011;65084;42.196;25.326;2023-03-01T00:37:01;0.80;;;0.80;;
34805;SDS011;65084;42.196;25.326;2023-03-01T00:39:30;0.80;;;0.80;;
34805;SDS011;65084;42.196;25.326;2023-03-01T00:41:58;0.88;;;0.88;;
34805;SDS011;65084;42.196;25.326;2023-03-01T00:44:25;0.80;;;0.80;;
34805;SDS011;65084;42.196;25.326;2023-03-01T00:46:53;0.90;;;0.90;;
34805;SDS011;65084;42.196;25.326;2023-03-01T00:49:20;0.93;;;0.93;;
34805;SDS011;65084;42.196;25.326;2023-03-01T00:51:49;1.10;;;1.02;;
34805;SDS011;65084;42.196;25.326;2023-03-01T00:54:18;1.10;;;1.10;;
34805;SDS011;65084;42.196;25.326;2023-03-01T00:56:45;1.55;;;1.15;;
34805;SDS011;65084;42.196;25.326;2023-03-01T00:59:12;0.80;;;0.80;;
34805;SDS011;65084;42.196;25.326;2023-03-01T01:01:39;1.00;;;1.00;;
34805;SDS011;65084;42.196;25.326;2023-03-01T01:04:08;0.90;;;0.90;;
34805;SDS011;65084;42.196;25.326;2023-03-01T01:06:36;1.00;;;1.00;;
34805;SDS011;65084;42.196;25.326;2023-03-01T01:09:05;1.08;;;1.00;;
34805;SDS011;65084;42.196;25.326;2023-03-01T01:11:34;0.77;;;0.77;;
34805;SDS011;65084;42.196;25.326;2023-03-01T01:14:02;0.90;;;0.90;;
34805;SDS011;65084;42.196;25.326;2023-03-01T01:16:29;0.90;;;0.90;;
34805;SDS011;65084;42.196;25.326;2023-03-01T01:18:57;0.93;;;0.88;;
34805;SDS011;65084;42.196;25.326;2023-03-01T01:21:24;0.82;;;0.80;;
34805;SDS011;65084;42.196;25.326;2023-03-01T01:23:52;1.00;;;0.90;;
34805;SDS011;65084;42.196;25.326;2023-03-01T01:26:20;1.10;;;1.10;;
34805;SDS011;65084;42.196;25.326;2023-03-01T01:28:49;1.20;;;1.10;;
34805;SDS011;65084;42.196;25.326;2023-03-01T01:31:16;0.90;;;0.90;;
34805;SDS011;65084;42.196;25.326;2023-03-01T01:33:44;0.98;;;0.98;;
34805;SDS011;65084;42.196;25.326;2023-03-01T01:36:12;1.00;;;1.00;;
34805;SDS011;65084;42.196;25.326;2023-03-01T01:38:39;1.10;;;1.00;;
34805;SDS011;65084;42.196;25.326;2023-03-01T01:41:08;1.13;;;1.08;;
34805;SDS011;65084;42.196;25.326;2023-03-01T01:43:37;1.23;;;1.23;;
34805;SDS011;65084;42.196;25.326;2023-03-01T01:46:10;0.80;;;0.80;;
34805;SDS011;65084;42.196;25.326;2023-03-01T01:48:43;1.15;;;1.05;;
34805;SDS011;65084;42.196;25.326;2023-03-01T01:51:12;0.80;;;0.80;;
34805;SDS011;65084;42.196;25.326;2023-03-01T01:53:40;1.23;;;1.13;;
34805;SDS011;65084;42.196;25.326;2023-03-01T01:56:09;1.00;;;1.00;;
34805;SDS011;65084;42.196;25.326;2023-03-01T01:58:37;1.23;;;1.13;;
34805;SDS011;65084;42.196;25.326;2023-03-01T02:01:05;0.95;;;0.95;;
34805;SDS011;65084;42.196;25.326;2023-03-01T02:03:35;1.35;;;1.25;;
34805;SDS011;65084;42.196;25.326;2023-03-01T02:06:08;1.40;;;1.30;;
34805;SDS011;65084;42.196;25.326;2023-03-01T02:08:38;1.55;;;1.17;;
34805;SDS011;65084;42.196;25.326;2023-03-01T02:11:07;1.00;;;1.00;;
34805;SDS011;65084;42.196;25.326;2023-03-01T02:13:35;0.90;;;0.90;;
34805;SDS011;65084;42.196;25.326;2023-03-01T02:16:03;1.00;;;1.00;;
34805;SDS011;65084;42.196;25.326;2023-03-01T02:18:31;1.00;;;1.00;;
34805;SDS011;65084;42.196;25.326;2023-03-01T02:21:03;0.98;;;0.98;;
34805;SDS011;65084;42.196;25.326;2023-03-01T02:23:32;0.90;;;0.90;;
34805;SDS011;65084;42.196;25.326;2023-03-01T02:26:02;1.30;;;1.20;;
34805;SDS011;65084;42.196;25.326;2023-03-01T02:28:34;0.77;;;0.77;;
34805;SDS011;65084;42.196;25.326;2023-03-01T02:31:02;0.75;;;0.75;;
34805;SDS011;65084;42.196;25.326;2023-03-01T02:33:47;0.98;;;0.98;;
34805;SDS011;65084;42.196;25.326;2023-03-01T02:36:15;0.75;;;0.75;;
34805;SDS011;65084;42.196;25.326;2023-03-01T02:38:44;1.00;;;1.00;;
34805;SDS011;65084;42.196;25.326;2023-03-01T02:41:11;1.02;;;0.93;;
34805;SDS011;65084;42.196;25.326;2023-03-01T02:43:41;0.70;;;0.70;;
34805;SDS011;65084;42.196;25.326;2023-03-01T02:46:14;0.85;;;0.85;;
34805;SDS011;65084;42.196;25.326;2023-03-01T02:48:42;0.90;;;0.90;;
34805;SDS011;65084;42.196;25.326;2023-03-01T02:51:11;1.08;;;0.98;;
34805;SDS011;65084;42.196;25.326;2023-03-01T02:53:41;1.08;;;1.08;;
34805;SDS011;65084;42.196;25.326;2023-03-01T02:56:12;0.90;;;0.90;;
34805;SDS011;65084;42.196;25.326;2023-03-01T02:58:41;1.00;;;0.77;;
34805;SDS011;65084;42.196;25.326;2023-03-01T03:01:13;1.20;;;1.10;;
34805;SDS011;65084;42.196;25.326;2023-03-01T03:03:41;0.90;;;0.90;;
34805;SDS011;65084;42.196;25.326;2023-03-01T03:06:08;1.00;;;1.00;;
34805;SDS011;65084;42.196;25.326;2023-03-01T03:08:36;1.05;;;0.90;;
34805;SDS011;65084;42.196;25.326;2023-03-01T03:11:03;2.90;;;0.85;;
34805;SDS011;65084;42.196;25.326;2023-03-01T03:13:31;0.70;;;0.70;;
34805;SDS011;65084;42.196;25.326;2023-03-01T03:15:59;3.22;;;1.02;;
34805;SDS011;65084;42.196;25.326;2023-03-01T03:18:29;3.42;;;0.90;;
34805;SDS011;65084;42.196;25.326;2023-03-01T03:20:57;2.85;;;1.13;;
34805;SDS011;65084;42.196;25.326;2023-03-01T03:23:24;1.27;;;1.20;;
34805;SDS011;65084;42.196;25.326;2023-03-01T03:25:51;1.10;;;1.00;;
34805;SDS011;65084;42.196;25.326;2023-03-01T03:28:18;7.78;;;1.40;;
34805;SDS011;65084;42.196;25.326;2023-03-01T03:30:46;1.67;;;1.00;;
34805;SDS011;65084;42.196;25.326;2023-03-01T03:33:14;6.47;;;1.52;;
34805;SDS011;65084;42.196;25.326;2023-03-01T03:35:42;4.55;;;1.15;;
34805;SDS011;65084;42.196;25.326;2023-03-01T03:38:11;1.40;;;1.05;;
34805;SDS011;65084;42.196;25.326;2023-03-01T03:40:42;0.95;;;0.65;;
34805;SDS011;65084;42.196;25.326;2023-03-01T03:43:10;1.20;;;1.10;;
34805;SDS011;65084;42.196;25.326;2023-03-01T03:45:38;10.57;;;1.27;;
34805;SDS011;65084;42.196;25.326;2023-03-01T03:48:06;4.28;;;1.00;;
34805;SDS011;65084;42.196;25.326;2023-03-01T03:50:35;1.15;;;0.80;;
34805;SDS011;65084;42.196;25.326;2023-03-01T03:53:04;0.73;;;0.73;;
34805;SDS011;65084;42.196;25.326;2023-03-01T03:55:32;1.15;;;1.10;;
34805;SDS011;65084;42.196;25.326;2023-03-01T03:58:00;4.78;;;0.93;;
34805;SDS011;65084;42.196;25.326;2023-03-01T04:00:32;1.00;;;1.00;;
34805;SDS011;65084;42.196;25.326;2023-03-01T04:02:59;0.98;;;0.95;;
34805;SDS011;65084;42.196;25.326;2023-03-01T04:05:27;1.17;;;0.90;;
34805;SDS011;65084;42.196;25.326;2023-03-01T04:07:56;1.00;;;1.00;;
34805;SDS011;65084;42.196;25.326;2023-03-01T04:10:32;0.98;;;0.98;;
34805;SDS011;65084;42.196;25.326;2023-03-01T04:13:00;1.10;;;1.10;;
34805;SDS011;65084;42.196;25.326;2023-03-01T04:15:27;6.05;;;1.35;;
34805;SDS011;65084;42.196;25.326;2023-03-01T04:17:55;1.20;;;1.00;;
34805;SDS011;65084;42.196;25.326;2023-03-01T04:20:24;2.83;;;0.80;;
34805;SDS011;65084;42.196;25.326;2023-03-01T04:22:57;0.98;;;0.90;;
34805;SDS011;65084;42.196;25.326;2023-03-01T04:25:25;0.77;;;0.77;;
34805;SDS011;65084;42.196;25.326;2023-03-01T04:27:53;1.27;;;1.23;;
34805;SDS011;65084;42.196;25.326;2023-03-01T04:30:20;1.02;;;1.00;;
34805;SDS011;65084;42.196;25.326;2023-03-01T04:32:50;4.05;;;1.38;;
34805;SDS011;65084;42.196;25.326;2023-03-01T04:35:17;3.83;;;1.40;;
34805;SDS011;65084;42.196;25.326;2023-03-01T04:37:45;1.42;;;1.27;;
34805;SDS011;65084;42.196;25.326;2023-03-01T04:40:14;1.20;;;1.10;;
34805;SDS011;65084;42.196;25.326;2023-03-01T04:42:42;2.50;;;1.00;;
34805;SDS011;65084;42.196;25.326;2023-03-01T04:45:09;2.17;;;0.70;;
34805;SDS011;65084;42.196;25.326;2023-03-01T04:47:39;3.00;;;1.25;;
34805;SDS011;65084;42.196;25.326;2023-03-01T04:50:08;1.33;;;0.95;;
34805;SDS011;65084;42.196;25.326;2023-03-01T04:52:35;1.58;;;0.88;;
34805;SDS011;65084;42.196;25.326;2023-03-01T04:55:03;2.15;;;1.85;;
34805;SDS011;65084;42.196;25.326;2023-03-01T04:57:32;2.08;;;1.50;;
34805;SDS011;65084;42.196;25.326;2023-03-01T04:59:59;4.53;;;1.00;;
34805;SDS011;65084;42.196;25.326;2023-03-01T05:02:44;0.90;;;0.90;;
34805;SDS011;65084;42.196;25.326;2023-03-01T05:05:12;1.38;;;0.77;;
34805;SDS011;65084;42.196;25.326;2023-03-01T05:07:39;0.90;;;0.90;;
34805;SDS011;65084;42.196;25.326;2023-03-01T05:10:06;3.58;;;1.00;;
34805;SDS011;65084;42.196;25.326;2023-03-01T05:12:35;1.88;;;1.10;;
34805;SDS011;65084;42.196;25.326;2023-03-01T05:15:03;1.33;;;1.10;;
34805;SDS011;65084;42.196;25.326;2023-03-01T05:17:32;4.53;;;1.10;;
34805;SDS011;65084;42.196;25.326;2023-03-01T05:19:59;1.60;;;1.50;;
34805;SDS011;65084;42.196;25.326;2023-03-01T05:22:29;1.17;;;1.10;;
34805;SDS011;65084;42.196;25.326;2023-03-01T05:24:56;1.00;;;1.00;;
34805;SDS011;65084;42.196;25.326;2023-03-01T05:27:23;3.25;;;1.52;;
34805;SDS011;65084;42.196;25.326;2023-03-01T05:29:52;3.80;;;1.10;;
34805;SDS011;65084;42.196;25.326;2023-03-01T05:32:19;3.83;;;1.80;;
34805;SDS011;65084;42.196;25.326;2023-03-01T05:34:46;2.00;;;1.75;;
34805;SDS011;65084;42.196;25.326;2023-03-01T05:37:14;2.70;;;1.85;;
34805;SDS011;65084;42.196;25.326;2023-03-01T05:39:41;1.60;;;1.50;;
34805;SDS011;65084;42.196;25.326;2023-03-01T05:42:10;1.55;;;1.45;;
34805;SDS011;65084;42.196;25.326;2023-03-01T05:44:37;1.77;;;1.55;;
34805;SDS011;65084;42.196;25.326;2023-03-01T05:47:06;2.28;;;1.70;;
34805;SDS011;65084;42.196;25.326;2023-03-01T05:49:34;3.65;;;2.38;;
34805;SDS011;65084;42.196;25.326;2023-03-01T05:52:01;4.43;;;2.85;;
34805;SDS011;65084;42.196;25.326;2023-03-01T05:54:28;7.53;;;4.13;;
34805;SDS011;65084;42.196;25.326;2023-03-01T05:56:55;5.47;;;3.60;;
34805;SDS011;65084;42.196;25.326;2023-03-01T05:59:23;7.15;;;3.50;;
34805;SDS011;65084;42.196;25.326;2023-03-01T06:01:50;6.65;;;4.30;;
34805;SDS011;65084;42.196;25.326;2023-03-01T06:04:19;9.68;;;4.57;;
34805;SDS011;65084;42.196;25.326;2023-03-01T06:06:46;9.02;;;4.65;;
34805;SDS011;65084;42.196;25.326;2023-03-01T06:09:14;13.18;;;3.88;;
34805;SDS011;65084;42.196;25.326;2023-03-01T06:11:41;11.98;;;2.80;;
34805;SDS011;65084;42.196;25.326;2023-03-01T06:14:09;7.88;;;5.05;;
34805;SDS011;65084;42.196;25.326;2023-03-01T06:16:39;11.98;;;8.35;;
34805;SDS011;65084;42.196;25.326;2023-03-01T06:19:07;20.75;;;9.02;;
34805;SDS011;65084;42.196;25.326;2023-03-01T06:21:35;30.90;;;22.27;;
34805;SDS011;65084;42.196;25.326;2023-03-01T06:24:03;82.82;;;54.08;;
34805;SDS011;65084;42.196;25.326;2023-03-01T06:26:32;86.88;;;52.78;;
34805;SDS011;65084;42.196;25.326;2023-03-01T06:28:59;94.50;;;59.22;;
34805;SDS011;65084;42.196;25.326;2023-03-01T06:31:26;44.92;;;27.48;;
34805;SDS011;65084;42.196;25.326;2023-03-01T06:33:54;45.13;;;29.48;;
34805;SDS011;65084;42.196;25.326;2023-03-01T06:36:21;39.00;;;25.33;;
34805;SDS011;65084;42.196;25.326;2023-03-01T06:38:50;36.85;;;22.05;;
34805;SDS011;65084;42.196;25.326;2023-03-01T06:41:17;15.23;;;12.07;;
34805;SDS011;65084;42.196;25.326;2023-03-01T06:43:44;36.17;;;23.88;;
34805;SDS011;65084;42.196;25.326;2023-03-01T06:46:12;42.63;;;29.58;;
34805;SDS011;65084;42.196;25.326;2023-03-01T06:48:39;32.20;;;22.00;;
34805;SDS011;65084;42.196;25.326;2023-03-01T06:51:06;25.60;;;16.80;;
34805;SDS011;65084;42.196;25.326;2023-03-01T06:53:33;190.38;;;89.68;;
34805;SDS011;65084;42.196;25.326;2023-03-01T06:56:02;61.92;;;32.78;;
34805;SDS011;65084;42.196;25.326;2023-03-01T06:58:29;18.50;;;12.27;;
34805;SDS011;65084;42.196;25.326;2023-03-01T07:00:57;27.08;;;16.30;;
34805;SDS011;65084;42.196;25.326;2023-03-01T07:03:24;104.30;;;59.72;;
34805;SDS011;65084;42.196;25.326;2023-03-01T07:05:51;136.23;;;88.70;;
34805;SDS011;65084;42.196;25.326;2023-03-01T07:08:18;105.82;;;69.55;;
34805;SDS011;65084;42.196;25.326;2023-03-01T07:10:46;49.25;;;35.22;;
34805;SDS011;65084;42.196;25.326;2023-03-01T07:13:14;32.75;;;21.90;;
34805;SDS011;65084;42.196;25.326;2023-03-01T07:15:42;10.85;;;8.95;;
34805;SDS011;65084;42.196;25.326;2023-03-01T07:18:09;9.15;;;6.35;;
34805;SDS011;65084;42.196;25.326;2023-03-01T07:20:36;11.48;;;5.32;;
34805;SDS011;65084;42.196;25.326;2023-03-01T07:23:05;12.13;;;5.97;;
34805;SDS011;65084;42.196;25.326;2023-03-01T07:25:33;4.22;;;3.40;;
34805;SDS011;65084;42.196;25.326;2023-03-01T07:28:00;10.30;;;5.00;;
34805;SDS011;65084;42.196;25.326;2023-03-01T07:30:28;16.15;;;7.53;;
34805;SDS011;65084;42.196;25.326;2023-03-01T07:32:56;13.13;;;5.63;;
34805;SDS011;65084;42.196;25.326;2023-03-01T07:35:24;8.35;;;5.57;;
34805;SDS011;65084;42.196;25.326;2023-03-01T07:37:52;12.52;;;6.13;;
34805;SDS011;65084;42.196;25.326;2023-03-01T07:40:19;19.08;;;7.43;;
34805;SDS011;65084;42.196;25.326;2023-03-01T07:42:46;9.55;;;4.65;;
34805;SDS011;65084;42.196;25.326;2023-03-01T07:45:14;10.57;;;5.57;;
34805;SDS011;65084;42.196;25.326;2023-03-01T07:47:42;12.75;;;6.13;;
34805;SDS011;65084;42.196;25.326;2023-03-01T07:50:10;11.18;;;5.30;;
34805;SDS011;65084;42.196;25.326;2023-03-01T07:52:38;7.32;;;5.28;;
34805;SDS011;65084;42.196;25.326;2023-03-01T07:55:06;10.20;;;5.68;;
34805;SDS011;65084;42.196;25.326;2023-03-01T07:57:33;7.50;;;5.03;;
34805;SDS011;65084;42.196;25.326;2023-03-01T08:00:00;14.65;;;5.85;;
34805;SDS011;65084;42.196;25.326;2023-03-01T08:02:28;10.93;;;5.93;;
34805;SDS011;65084;42.196;25.326;2023-03-01T08:04:56;11.10;;;5.10;;
34805;SDS011;65084;42.196;25.326;2023-03-01T08:07:24;10.07;;;5.47;;
34805;SDS011;65084;42.196;25.326;2023-03-01T08:09:51;7.43;;;5.10;;
34805;SDS011;65084;42.196;25.326;2023-03-01T08:12:18;6.25;;;4.18;;
34805;SDS011;65084;42.196;25.326;2023-03-01T08:14:46;10.45;;;4.40;;
34805;SDS011;65084;42.196;25.326;2023-03-01T08:17:13;5.53;;;3.97;;
34805;SDS011;65084;42.196;25.326;2023-03-01T08:19:40;9.63;;;4.78;;
34805;SDS011;65084;42.196;25.326;2023-03-01T08:22:09;12.75;;;5.88;;
34805;SDS011;65084;42.196;25.326;2023-03-01T08:24:36;13.90;;;5.70;;
34805;SDS011;65084;42.196;25.326;2023-03-01T08:27:03;6.75;;;4.47;;
34805;SDS011;65084;42.196;25.326;2023-03-01T08:29:31;5.22;;;4.45;;
34805;SDS011;65084;42.196;25.326;2023-03-01T08:31:58;6.95;;;4.68;;
34805;SDS011;65084;42.196;25.326;2023-03-01T08:34:25;6.55;;;3.80;;
34805;SDS011;65084;42.196;25.326;2023-03-01T08:36:53;5.95;;;4.20;;
34805;SDS011;65084;42.196;25.326;2023-03-01T08:39:21;6.43;;;4.20;;
34805;SDS011;65084;42.196;25.326;2023-03-01T08:41:49;7.80;;;4.90;;
34805;SDS011;65084;42.196;25.326;2023-03-01T08:44:16;19.63;;;10.40;;
34805;SDS011;65084;42.196;25.326;2023-03-01T08:46:44;9.30;;;5.53;;
34805;SDS011;65084;42.196;25.326;2023-03-01T08:49:13;6.47;;;4.53;;
34805;SDS011;65084;42.196;25.326;2023-03-01T08:51:41;5.55;;;3.45;;
34805;SDS011;65084;42.196;25.326;2023-03-01T08:54:10;5.68;;;3.78;;
34805;SDS011;65084;42.196;25.326;2023-03-01T08:56:38;4.28;;;2.83;;
34805;SDS011;65084;42.196;25.326;2023-03-01T08:59:06;5.93;;;3.60;;
34805;SDS011;65084;42.196;25.326;2023-03-01T09:01:33;8.70;;;3.53;;
34805;SDS011;65084;42.196;25.326;2023-03-01T09:04:02;4.25;;;3.83;;
34805;SDS011;65084;42.196;25.326;2023-03-01T09:06:30;7.38;;;4.97;;
34805;SDS011;65084;42.196;25.326;2023-03-01T09:08:58;6.85;;;4.63;;
34805;SDS011;65084;42.196;25.326;2023-03-01T09:11:26;4.43;;;3.97;;
34805;SDS011;65084;42.196;25.326;2023-03-01T09:13:54;15.57;;;10.23;;
34805;SDS011;65084;42.196;25.326;2023-03-01T09:16:22;8.20;;;5.97;;
34805;SDS011;65084;42.196;25.326;2023-03-01T09:18:50;35.25;;;23.38;;
34805;SDS011;65084;42.196;25.326;2023-03-01T09:21:18;58.10;;;39.92;;
34805;SDS011;65084;42.196;25.326;2023-03-01T09:23:46;15.32;;;12.45;;
34805;SDS011;65084;42.196;25.326;2023-03-01T09:26:15;13.98;;;12.43;;
34805;SDS011;65084;42.196;25.326;2023-03-01T09:28:44;10.00;;;7.50;;
34805;SDS011;65084;42.196;25.326;2023-03-01T09:31:13;6.82;;;6.13;;
34805;SDS011;65084;42.196;25.326;2023-03-01T09:33:41;9.75;;;6.15;;
34805;SDS011;65084;42.196;25.326;2023-03-01T09:36:10;10.95;;;7.47;;
34805;SDS011;65084;42.196;25.326;2023-03-01T09:38:38;9.13;;;5.30;;
34805;SDS011;65084;42.196;25.326;2023-03-01T09:41:09;11.38;;;7.13;;
34805;SDS011;65084;42.196;25.326;2023-03-01T09:43:40;8.13;;;7.13;;
34805;SDS011;65084;42.196;25.326;2023-03-01T09:46:10;8.40;;;7.43;;
34805;SDS011;65084;42.196;25.326;2023-03-01T09:48:42;23.38;;;16.60;;
34805;SDS011;65084;42.196;25.326;2023-03-01T09:51:12;16.92;;;12.10;;
34805;SDS011;65084;42.196;25.326;2023-03-01T09:53:41;14.32;;;9.35;;
34805;SDS011;65084;42.196;25.326;2023-03-01T09:56:11;14.35;;;10.07;;
34805;SDS011;65084;42.196;25.326;2023-03-01T09:58:41;13.93;;;8.52;;
34805;SDS011;65084;42.196;25.326;2023-03-01T10:01:27;8.13;;;6.18;;
34805;SDS011;65084;42.196;25.326;2023-03-01T10:04:12;11.55;;;10.23;;
34805;SDS011;65084;42.196;25.326;2023-03-01T10:09:57;9.60;;;8.60;;
34805;SDS011;65084;42.196;25.326;2023-03-01T10:12:27;11.57;;;8.10;;
34805;SDS011;65084;42.196;25.326;2023-03-01T10:15:00;11.27;;;6.45;;
34805;SDS011;65084;42.196;25.326;2023-03-01T10:17:30;6.45;;;4.72;;
34805;SDS011;65084;42.196;25.326;2023-03-01T10:20:05;6.97;;;6.38;;
34805;SDS011;65084;42.196;25.326;2023-03-01T10:22:37;9.35;;;6.35;;
34805;SDS011;65084;42.196;25.326;2023-03-01T10:25:04;14.25;;;8.05;;
34805;SDS011;65084;42.196;25.326;2023-03-01T10:27:34;7.40;;;5.28;;
34805;SDS011;65084;42.196;25.326;2023-03-01T10:30:05;14.85;;;11.07;;
34805;SDS011;65084;42.196;25.326;2023-03-01T10:32:36;32.17;;;19.60;;
34805;SDS011;65084;42.196;25.326;2023-03-01T10:35:16;56.85;;;32.70;;
34805;SDS011;65084;42.196;25.326;2023-03-01T10:37:56;45.25;;;27.85;;
34805;SDS011;65084;42.196;25.326;2023-03-01T10:40:23;73.05;;;45.35;;
34805;SDS011;65084;42.196;25.326;2023-03-01T10:42:50;75.30;;;48.45;;
34805;SDS011;65084;42.196;25.326;2023-03-01T10:45:26;49.90;;;33.33;;
34805;SDS011;65084;42.196;25.326;2023-03-01T10:48:03;54.95;;;33.13;;
34805;SDS011;65084;42.196;25.326;2023-03-01T10:50:32;43.53;;;24.40;;
34805;SDS011;65084;42.196;25.326;2023-03-01T10:53:00;27.15;;;16.30;;
34805;SDS011;65084;42.196;25.326;2023-03-01T10:55:30;27.90;;;21.45;;
34805;SDS011;65084;42.196;25.326;2023-03-01T10:58:08;15.75;;;9.88;;
34805;SDS011;65084;42.196;25.326;2023-03-01T11:00:45;12.68;;;8.45;;
34805;SDS011;65084;42.196;25.326;2023-03-01T11:03:13;11.52;;;7.55;;
34805;SDS011;65084;42.196;25.326;2023-03-01T11:05:51;13.20;;;7.97;;
34805;SDS011;65084;42.196;25.326;2023-03-01T11:08:29;12.65;;;7.80;;
34805;SDS011;65084;42.196;25.326;2023-03-01T11:11:03;14.73;;;8.52;;
34805;SDS011;65084;42.196;25.326;2023-03-01T11:13:30;13.95;;;9.48;;
34805;SDS011;65084;42.196;25.326;2023-03-01T11:15:58;13.25;;;7.75;;
34805;SDS011;65084;42.196;25.326;2023-03-01T11:18:25;10.45;;;7.85;;
34805;SDS011;65084;42.196;25.326;2023-03-01T11:20:55;13.00;;;7.70;;
34805;SDS011;65084;42.196;25.326;2023-03-01T11:23:22;13.90;;;9.38;;
34805;SDS011;65084;42.196;25.326;2023-03-01T11:25:51;11.55;;;8.98;;
34805;SDS011;65084;42.196;25.326;2023-03-01T11:28:20;10.95;;;7.93;;
34805;SDS011;65084;42.196;25.326;2023-03-01T11:30:48;11.45;;;6.75;;
34805;SDS011;65084;42.196;25.326;2023-03-01T11:33:17;10.68;;;5.63;;
34805;SDS011;65084;42.196;25.326;2023-03-01T11:35:47;5.35;;;4.85;;
34805;SDS011;65084;42.196;25.326;2023-03-01T11:38:19;6.65;;;4.90;;
34805;SDS011;65084;42.196;25.326;2023-03-01T11:40:49;9.25;;;5.57;;
34805;SDS011;65084;42.196;25.326;2023-03-01T11:43:19;13.20;;;5.13;;
34805;SDS011;65084;42.196;25.326;2023-03-01T11:45:51;8.40;;;6.25;;
34805;SDS011;65084;42.196;25.326;2023-03-01T11:48:25;8.65;;;6.35;;
34805;SDS011;65084;42.196;25.326;2023-03-01T11:50:56;10.52;;;6.05;;
34805;SDS011;65084;42.196;25.326;2023-03-01T11:53:35;7.00;;;6.30;;
34805;SDS011;65084;42.196;25.326;2023-03-01T11:56:10;13.68;;;6.47;;
34805;SDS011;65084;42.196;25.326;2023-03-01T11:58:53;12.55;;;6.63;;
34805;SDS011;65084;42.196;25.326;2023-03-01T12:01:31;10.40;;;7.03;;
34805;SDS011;65084;42.196;25.326;2023-03-01T12:04:14;10.38;;;8.10;;
34805;SDS011;65084;42.196;25.326;2023-03-01T12:06:47;14.32;;;8.77;;
34805;SDS011;65084;42.196;25.326;2023-03-01T12:14:47;6.03;;;5.50;;
34805;SDS011;65084;42.196;25.326;2023-03-01T12:17:21;13.73;;;6.68;;
34805;SDS011;65084;42.196;25.326;2023-03-01T12:20:02;7.68;;;5.20;;
34805;SDS011;65084;42.196;25.326;2023-03-01T12:22:35;9.20;;;6.20;;
34805;SDS011;65084;42.196;25.326;2023-03-01T12:25:08;8.77;;;7.57;;
34805;SDS011;65084;42.196;25.326;2023-03-01T12:27:47;14.00;;;8.93;;
34805;SDS011;65084;42.196;25.326;2023-03-01T12:30:19;14.77;;;10.68;;
34805;SDS011;65084;42.196;25.326;2023-03-01T12:32:51;12.48;;;8.18;;
34805;SDS011;65084;42.196;25.326;2023-03-01T12:35:26;9.13;;;7.18;;
34805;SDS011;65084;42.196;25.326;2023-03-01T12:37:58;11.15;;;8.25;;
34805;SDS011;65084;42.196;25.326;2023-03-01T12:40:33;9.82;;;7.72;;
34805;SDS011;65084;42.196;25.326;2023-03-01T12:43:06;12.82;;;8.02;;
34805;SDS011;65084;42.196;25.326;2023-03-01T12:45:41;11.50;;;7.85;;
34805;SDS011;65084;42.196;25.326;2023-03-01T12:48:17;9.45;;;6.45;;
34805;SDS011;65084;42.196;25.326;2023-03-01T12:50:48;12.45;;;7.60;;
34805;SDS011;65084;42.196;25.326;2023-03-01T12:53:24;10.38;;;7.97;;
34805;SDS011;65084;42.196;25.326;2023-03-01T12:55:53;12.82;;;8.07;;
34805;SDS011;65084;42.196;25.326;2023-03-01T12:58:23;13.32;;;7.20;;
34805;SDS011;65084;42.196;25.326;2023-03-01T13:00:59;9.85;;;7.15;;
34805;SDS011;65084;42.196;25.326;2023-03-01T13:03:29;7.63;;;6.03;;
34805;SDS011;65084;42.196;25.326;2023-03-01T13:06:03;9.40;;;7.22;;
34805;SDS011;65084;42.196;25.326;2023-03-01T13:08:35;13.57;;;9.18;;
34805;SDS011;65084;42.196;25.326;2023-03-01T13:11:03;24.80;;;14.50;;
34805;SDS011;65084;42.196;25.326;2023-03-01T13:13:32;17.63;;;11.02;;
34805;SDS011;65084;42.196;25.326;2023-03-01T13:16:19;13.35;;;9.00;;
34805;SDS011;65084;42.196;25.326;2023-03-01T13:18:47;13.13;;;9.18;;
34805;SDS011;65084;42.196;25.326;2023-03-01T13:21:14;13.18;;;9.07;;
34805;SDS011;65084;42.196;25.326;2023-03-01T13:23:56;15.95;;;11.45;;
34805;SDS011;65084;42.196;25.326;2023-03-01T13:26:23;13.98;;;9.98;;
34805;SDS011;65084;42.196;25.326;2023-03-01T13:28:51;14.75;;;9.00;;
34805;SDS011;65084;42.196;25.326;2023-03-01T13:34:07;10.85;;;7.28;;
34805;SDS011;65084;42.196;25.326;2023-03-01T13:36:59;12.60;;;7.65;;
34805;SDS011;65084;42.196;25.326;2023-03-01T13:39:39;10.05;;;7.70;;
34805;SDS011;65084;42.196;25.326;2023-03-01T13:44:49;12.90;;;9.60;;
34805;SDS011;65084;42.196;25.326;2023-03-01T13:47:17;14.35;;;9.93;;
34805;SDS011;65084;42.196;25.326;2023-03-01T13:49:46;11.45;;;8.45;;
34805;SDS011;65084;42.196;25.326;2023-03-01T13:52:26;15.38;;;10.57;;
34805;SDS011;65084;42.196;25.326;2023-03-01T13:54:55;14.93;;;9.35;;
34805;SDS011;65084;42.196;25.326;2023-03-01T13:57:24;12.75;;;9.32;;
34805;SDS011;65084;42.196;25.326;2023-03-01T13:59:53;13.38;;;8.65;;
34805;SDS011;65084;42.196;25.326;2023-03-01T14:02:20;12.13;;;8.13;;
34805;SDS011;65084;42.196;25.326;2023-03-01T14:04:55;12.30;;;8.32;;
34805;SDS011;65084;42.196;25.326;2023-03-01T14:07:24;10.43;;;7.88;;
34805;SDS011;65084;42.196;25.326;2023-03-01T14:09:55;10.07;;;7.45;;
34805;SDS011;65084;42.196;25.326;2023-03-01T14:12:28;11.32;;;8.00;;
34805;SDS011;65084;42.196;25.326;2023-03-01T14:14:59;12.00;;;8.27;;
34805;SDS011;65084;42.196;25.326;2023-03-01T14:20:14;12.23;;;7.72;;
34805;SDS011;65084;42.196;25.326;2023-03-01T14:22:44;15.63;;;8.73;;
34805;SDS011;65084;42.196;25.326;2023-03-01T14:25:17;14.52;;;10.98;;
34805;SDS011;65084;42.196;25.326;2023-03-01T14:27:50;15.65;;;10.30;;
34805;SDS011;65084;42.196;25.326;2023-03-01T14:30:19;13.73;;;9.38;;
34805;SDS011;65084;42.196;25.326;2023-03-01T14:32:51;10.93;;;7.82;;
34805;SDS011;65084;42.196;25.326;2023-03-01T14:35:20;16.20;;;9.20;;
34805;SDS011;65084;42.196;25.326;2023-03-01T14:37:49;15.43;;;8.73;;
34805;SDS011;65084;42.196;25.326;2023-03-01T14:40:21;16.05;;;8.70;;
34805;SDS011;65084;42.196;25.326;2023-03-01T14:42:50;15.63;;;9.05;;
34805;SDS011;65084;42.196;25.326;2023-03-01T14:45:17;18.48;;;9.45;;
34805;SDS011;65084;42.196;25.326;2023-03-01T14:47:45;31.40;;;13.13;;
34805;SDS011;65084;42.196;25.326;2023-03-01T14:50:17;30.92;;;11.80;;
34805;SDS011;65084;42.196;25.326;2023-03-01T14:52:47;31.92;;;13.73;;
34805;SDS011;65084;42.196;25.326;2023-03-01T14:55:18;36.72;;;12.52;;